Kimberley, Kimberley Airport (FAKM)

NameKimberley Airport
CityKimberley
CountrySouth Africa
ICAOFAKM
IATAKIM
Altitude1204 m
CoordinatesGoogle Map
Live Air TrafficLiveATC.net
METARFAKM 251700Z 18004KT 9999 -TSRA SCT020 FEW025CB OVC080 15/13 Q1020
2020-04-25 17:00:00 Wind: South (180°) 2.06 m/s - Visibility: > 10000 m - Weather: Light Thunderstorm Rain - Temperature: 15 °C - Dew point: 13 °C - Humidity: 87.9% - Pressure: 1020 hPa
Statistics

The table below shows the detailed information of all flights to/from Kimberley, Kimberley Airport (FAKM).